sensor_id;sensor_type;location;lat;lon;timestamp;pressure;altitude;pressure_sealevel;temperature;humidity
53940;BME280;39850;43.324;21.916;2023-02-28T00:24:08;999.0;;;4.9;77.0
53940;BME280;39850;43.324;21.916;2023-02-28T00:28:45;999.0;;;4.9;77.0
53940;BME280;39850;43.324;21.916;2023-02-28T00:33:22;999.0;;;5.2;76.0
53940;BME280;39850;43.324;21.916;2023-02-28T00:37:59;999.0;;;5.2;76.0
53940;BME280;39850;43.324;21.916;2023-02-28T00:42:38;999.0;;;4.9;75.0
53940;BME280;39850;43.324;21.916;2023-02-28T00:47:16;999.0;;;4.9;75.0
53940;BME280;39850;43.324;21.916;2023-02-28T00:51:56;999.0;;;5.2;75.0
53940;BME280;39850;43.324;21.916;2023-02-28T00:56:33;999.0;;;5.2;75.0
53940;BME280;39850;43.324;21.916;2023-02-28T01:01:10;999.0;;;5.2;75.0
53940;BME280;39850;43.324;21.916;2023-02-28T01:05:48;999.0;;;4.9;75.0
53940;BME280;39850;43.324;21.916;2023-02-28T01:10:29;999.0;;;4.9;75.0
53940;BME280;39850;43.324;21.916;2023-02-28T01:42:55;999.0;;;5.5;74.0
53940;BME280;39850;43.324;21.916;2023-02-28T01:47:48;999.0;;;5.5;74.0
53940;BME280;39850;43.324;21.916;2023-02-28T01:52:32;999.0;;;5.5;74.0
53940;BME280;39850;43.324;21.916;2023-02-28T01:57:35;999.0;;;5.5;74.0
53940;BME280;39850;43.324;21.916;2023-02-28T02:02:19;999.0;;;5.5;74.0
53940;BME280;39850;43.324;21.916;2023-02-28T02:07:00;999.0;;;5.5;74.0
53940;BME280;39850;43.324;21.916;2023-02-28T02:11:46;999.0;;;5.5;74.0
53940;BME280;39850;43.324;21.916;2023-02-28T02:17:23;999.0;;;5.5;74.0
53940;BME280;39850;43.324;21.916;2023-02-28T02:24:28;999.0;;;5.5;75.0
53940;BME280;39850;43.324;21.916;2023-02-28T03:02:21;999.0;;;4.4;78.0
53940;BME280;39850;43.324;21.916;2023-02-28T03:07:00;999.0;;;4.4;78.0
53940;BME280;39850;43.324;21.916;2023-02-28T03:11:43;999.0;;;4.4;78.0
53940;BME280;39850;43.324;21.916;2023-02-28T03:17:40;999.0;;;4.4;78.0
53940;BME280;39850;43.324;21.916;2023-02-28T03:23:16;999.0;;;4.4;77.0
53940;BME280;39850;43.324;21.916;2023-02-28T03:28:47;999.0;;;4.4;77.0
53940;BME280;39850;43.324;21.916;2023-02-28T03:33:55;999.0;;;4.8;76.0
53940;BME280;39850;43.324;21.916;2023-02-28T03:38:59;999.0;;;4.8;76.0
53940;BME280;39850;43.324;21.916;2023-02-28T03:44:04;999.0;;;5.2;75.0
53940;BME280;39850;43.324;21.916;2023-02-28T03:49:07;999.0;;;5.2;75.0
53940;BME280;39850;43.324;21.916;2023-02-28T04:22:18;1000.0;;;5.5;74.0
53940;BME280;39850;43.324;21.916;2023-02-28T04:26:59;1000.0;;;5.5;74.0
53940;BME280;39850;43.324;21.916;2023-02-28T04:31:36;1000.0;;;5.5;74.0
53940;BME280;39850;43.324;21.916;2023-02-28T04:36:13;1000.0;;;5.5;74.0
53940;BME280;39850;43.324;21.916;2023-02-28T04:40:49;1000.0;;;5.5;74.0
53940;BME280;39850;43.324;21.916;2023-02-28T04:45:27;1000.0;;;5.5;74.0
53940;BME280;39850;43.324;21.916;2023-02-28T04:50:06;1000.0;;;5.5;74.0
53940;BME280;39850;43.324;21.916;2023-02-28T04:54:43;1000.0;;;5.5;74.0
53940;BME280;39850;43.324;21.916;2023-02-28T04:59:20;1000.0;;;5.5;74.0
53940;BME280;39850;43.324;21.916;2023-02-28T05:55:00;1000.0;;;4.4;76.0
53940;BME280;39850;43.324;21.916;2023-02-28T05:59:37;1000.0;;;4.4;76.0
53940;BME280;39850;43.324;21.916;2023-02-28T06:04:21;1000.0;;;4.4;76.0
53940;BME280;39850;43.324;21.916;2023-02-28T06:08:58;1000.0;;;4.4;76.0
53940;BME280;39850;43.324;21.916;2023-02-28T06:13:34;1000.0;;;4.4;76.0
53940;BME280;39850;43.324;21.916;2023-02-28T06:18:11;1000.0;;;4.4;76.0
53940;BME280;39850;43.324;21.916;2023-02-28T07:04:27;1000.0;;;5.4;77.0
53940;BME280;39850;43.324;21.916;2023-02-28T07:09:05;1000.0;;;5.4;77.0
53940;BME280;39850;43.324;21.916;2023-02-28T07:13:42;1000.0;;;5.8;76.0
53940;BME280;39850;43.324;21.916;2023-02-28T07:18:19;1000.0;;;5.8;76.0
53940;BME280;39850;43.324;21.916;2023-02-28T07:22:56;1000.0;;;6.1;75.0
53940;BME280;39850;43.324;21.916;2023-02-28T07:27:32;1000.0;;;6.1;75.0
53940;BME280;39850;43.324;21.916;2023-02-28T07:32:09;1000.0;;;6.1;75.0
53940;BME280;39850;43.324;21.916;2023-02-28T07:36:46;1000.0;;;6.2;74.0
53940;BME280;39850;43.324;21.916;2023-02-28T07:41:23;1000.0;;;6.2;74.0
53940;BME280;39850;43.324;21.916;2023-02-28T07:46:10;1000.0;;;6.4;74.0
53940;BME280;39850;43.324;21.916;2023-02-28T07:50:57;1000.0;;;6.4;74.0
53940;BME280;39850;43.324;21.916;2023-02-28T08:23:16;1001.0;;;6.4;76.0
53940;BME280;39850;43.324;21.916;2023-02-28T08:27:53;1001.0;;;6.4;76.0
53940;BME280;39850;43.324;21.916;2023-02-28T08:32:32;1001.0;;;6.4;76.0
53940;BME280;39850;43.324;21.916;2023-02-28T08:37:10;1001.0;;;6.4;76.0
53940;BME280;39850;43.324;21.916;2023-02-28T08:41:47;1001.0;;;6.4;76.0
53940;BME280;39850;43.324;21.916;2023-02-28T08:46:25;1001.0;;;6.4;76.0
53940;BME280;39850;43.324;21.916;2023-02-28T08:51:16;1001.0;;;6.4;76.0
53940;BME280;39850;43.324;21.916;2023-02-28T08:56:08;1001.0;;;6.4;76.0
53940;BME280;39850;43.324;21.916;2023-02-28T09:00:45;1001.0;;;6.4;76.0
53940;BME280;39850;43.324;21.916;2023-02-28T09:05:22;1001.0;;;6.4;75.0
53940;BME280;39850;43.324;21.916;2023-02-28T09:09:58;1001.0;;;6.4;75.0
53940;BME280;39850;43.324;21.916;2023-02-28T09:57:37;1000.0;;;7.1;76.0
53940;BME280;39850;43.324;21.916;2023-02-28T10:03:29;1000.0;;;7.2;76.0
53940;BME280;39850;43.324;21.916;2023-02-28T10:08:28;1000.0;;;7.2;76.0
53940;BME280;39850;43.324;21.916;2023-02-28T10:13:35;1000.0;;;7.2;76.0
53940;BME280;39850;43.324;21.916;2023-02-28T10:18:42;1000.0;;;7.2;76.0
53940;BME280;39850;43.324;21.916;2023-02-28T10:23:37;1000.0;;;7.3;75.0
53940;BME280;39850;43.324;21.916;2023-02-28T10:28:17;1000.0;;;7.3;75.0
53940;BME280;39850;43.324;21.916;2023-02-28T10:32:54;1000.0;;;7.3;75.0
53940;BME280;39850;43.324;21.916;2023-02-28T11:05:38;1000.0;;;7.2;76.0
53940;BME280;39850;43.324;21.916;2023-02-28T11:10:32;1000.0;;;7.2;76.0
53940;BME280;39850;43.324;21.916;2023-02-28T11:15:32;1000.0;;;7.2;76.0
53940;BME280;39850;43.324;21.916;2023-02-28T11:20:32;1000.0;;;7.2;76.0
53940;BME280;39850;43.324;21.916;2023-02-28T11:25:31;1000.0;;;7.1;76.0
53940;BME280;39850;43.324;21.916;2023-02-28T11:30:37;1000.0;;;7.1;76.0
53940;BME280;39850;43.324;21.916;2023-02-28T11:35:38;1000.0;;;7.1;76.0
53940;BME280;39850;43.324;21.916;2023-02-28T11:41:07;1000.0;;;7.1;76.0
53940;BME280;39850;43.324;21.916;2023-02-28T11:46:43;1000.0;;;7.1;75.0
53940;BME280;39850;43.324;21.916;2023-02-28T11:51:53;1000.0;;;7.1;75.0
53940;BME280;39850;43.324;21.916;2023-02-28T12:30:08;999.0;;;7.3;75.0
53940;BME280;39850;43.324;21.916;2023-02-28T12:35:16;999.0;;;7.3;75.0
53940;BME280;39850;43.324;21.916;2023-02-28T12:40:19;999.0;;;7.3;75.0
53940;BME280;39850;43.324;21.916;2023-02-28T12:45:18;999.0;;;7.3;75.0
53940;BME280;39850;43.324;21.916;2023-02-28T12:50:11;999.0;;;7.3;75.0
53940;BME280;39850;43.324;21.916;2023-02-28T12:55:21;999.0;;;7.8;75.0
53940;BME280;39850;43.324;21.916;2023-02-28T13:00:21;999.0;;;7.8;75.0
53940;BME280;39850;43.324;21.916;2023-02-28T13:06:02;999.0;;;8.2;75.0
53940;BME280;39850;43.324;21.916;2023-02-28T13:10:51;999.0;;;8.2;75.0
53940;BME280;39850;43.324;21.916;2023-02-28T13:45:30;998.0;;;8.0;74.0
53940;BME280;39850;43.324;21.916;2023-02-28T13:50:39;998.0;;;8.0;74.0
53940;BME280;39850;43.324;21.916;2023-02-28T13:55:58;998.0;;;8.0;74.0
53940;BME280;39850;43.324;21.916;2023-02-28T14:01:59;998.0;;;8.0;74.0
53940;BME280;39850;43.324;21.916;2023-02-28T14:06:55;998.0;;;8.0;74.0
53940;BME280;39850;43.324;21.916;2023-02-28T14:11:43;998.0;;;8.0;74.0
53940;BME280;39850;43.324;21.916;2023-02-28T14:16:43;998.0;;;8.0;74.0
53940;BME280;39850;43.324;21.916;2023-02-28T14:21:33;998.0;;;8.0;74.0
53940;BME280;39850;43.324;21.916;2023-02-28T14:27:39;998.0;;;8.1;74.0
53940;BME280;39850;43.324;21.916;2023-02-28T14:32:54;998.0;;;8.1;74.0
53940;BME280;39850;43.324;21.916;2023-02-28T15:06:18;998.0;;;8.0;75.0
53940;BME280;39850;43.324;21.916;2023-02-28T15:11:14;998.0;;;8.0;75.0
53940;BME280;39850;43.324;21.916;2023-02-28T15:16:07;998.0;;;8.0;75.0
53940;BME280;39850;43.324;21.916;2023-02-28T15:20:47;998.0;;;8.0;75.0
53940;BME280;39850;43.324;21.916;2023-02-28T15:25:27;998.0;;;8.0;75.0
53940;BME280;39850;43.324;21.916;2023-02-28T15:30:26;998.0;;;8.0;75.0
53940;BME280;39850;43.324;21.916;2023-02-28T15:35:33;998.0;;;8.0;76.0
53940;BME280;39850;43.324;21.916;2023-02-28T15:40:31;998.0;;;8.0;76.0
53940;BME280;39850;43.324;21.916;2023-02-28T15:45:44;998.0;;;8.0;75.0
53940;BME280;39850;43.324;21.916;2023-02-28T15:50:22;998.0;;;8.0;75.0
53940;BME280;39850;43.324;21.916;2023-02-28T16:28:38;999.0;;;7.1;76.0
53940;BME280;39850;43.324;21.916;2023-02-28T16:33:15;999.0;;;7.1;76.0
53940;BME280;39850;43.324;21.916;2023-02-28T16:37:54;999.0;;;7.1;75.0
53940;BME280;39850;43.324;21.916;2023-02-28T16:42:33;999.0;;;7.1;75.0
53940;BME280;39850;43.324;21.916;2023-02-28T16:47:11;999.0;;;7.1;76.0
53940;BME280;39850;43.324;21.916;2023-02-28T16:51:48;999.0;;;7.1;76.0
53940;BME280;39850;43.324;21.916;2023-02-28T16:56:26;999.0;;;7.2;75.0
53940;BME280;39850;43.324;21.916;2023-02-28T17:01:04;999.0;;;7.2;75.0
53940;BME280;39850;43.324;21.916;2023-02-28T17:05:41;999.0;;;7.3;76.0
53940;BME280;39850;43.324;21.916;2023-02-28T17:10:26;999.0;;;7.3;76.0
53940;BME280;39850;43.324;21.916;2023-02-28T19:29:28;999.0;;;8.2;74.0
53940;BME280;39850;43.324;21.916;2023-02-28T19:34:05;999.0;;;8.2;74.0
53940;BME280;39850;43.324;21.916;2023-02-28T19:38:44;999.0;;;8.2;74.0
53940;BME280;39850;43.324;21.916;2023-02-28T19:43:20;999.0;;;8.2;74.0
53940;BME280;39850;43.324;21.916;2023-02-28T19:47:57;999.0;;;8.2;74.0
53940;BME280;39850;43.324;21.916;2023-02-28T19:52:33;999.0;;;8.2;74.0
53940;BME280;39850;43.324;21.916;2023-02-28T21:57:56;999.0;;;8.2;73.0
53940;BME280;39850;43.324;21.916;2023-02-28T22:02:33;999.0;;;8.2;73.0
53940;BME280;39850;43.324;21.916;2023-02-28T22:07:10;999.0;;;8.2;74.0
53940;BME280;39850;43.324;21.916;2023-02-28T22:11:48;999.0;;;8.2;74.0
53940;BME280;39850;43.324;21.916;2023-02-28T22:16:33;999.0;;;8.2;74.0
53940;BME280;39850;43.324;21.916;2023-02-28T22:21:19;999.0;;;8.2;74.0
53940;BME280;39850;43.324;21.916;2023-02-28T22:26:04;999.0;;;8.2;74.0
53940;BME280;39850;43.324;21.916;2023-02-28T22:30:41;999.0;;;8.2;74.0
53940;BME280;39850;43.324;21.916;2023-02-28T22:35:18;999.0;;;8.2;74.0
53940;BME280;39850;43.324;21.916;2023-02-28T23:16:56;999.0;;;7.1;74.0
53940;BME280;39850;43.324;21.916;2023-02-28T23:21:35;999.0;;;7.1;74.0
53940;BME280;39850;43.324;21.916;2023-02-28T23:26:12;999.0;;;7.2;75.0
53940;BME280;39850;43.324;21.916;2023-02-28T23:30:48;999.0;;;7.2;75.0
53940;BME280;39850;43.324;21.916;2023-02-28T23:35:25;999.0;;;7.2;75.0
53940;BME280;39850;43.324;21.916;2023-02-28T23:40:10;999.0;;;7.2;75.0
53940;BME280;39850;43.324;21.916;2023-02-28T23:44:47;999.0;;;7.2;75.0
53940;BME280;39850;43.324;21.916;2023-02-28T23:49:23;999.0;;;7.3;75.0
53940;BME280;39850;43.324;21.916;2023-02-28T23:54:00;999.0;;;7.3;75.0
